Time;durP1;ratioP1;P1;durP2;ratioP2;P2;SDS_P1;SDS_P2;PMS_P1;PMS_P2;Temp;Humidity;BMP_temperature;BMP_pressure;BME280_temperature;BME280_humidity;BME280_pressure;Samples;Min_cycle;Max_cycle;Signal;HPM_P1;HPM_P2
2022/02/21 00:00:36;;;;;;;7.35;2.92;;;21.70;54.50;;;;;;5094091;28;20542;-66
2022/02/21 00:03:02;;;;;;;7.13;2.88;;;21.70;54.50;;;;;;5094079;28;20028;-66
2022/02/21 00:05:28;;;;;;;8.82;3.17;;;21.60;54.50;;;;;;5094164;28;20024;-66
2022/02/21 00:07:53;;;;;;;9.38;2.97;;;21.60;55.40;;;;;;5094261;28;20052;-66
2022/02/21 00:10:19;;;;;;;8.73;3.10;;;21.60;54.50;;;;;;5094094;28;20012;-66
2022/02/21 00:12:45;;;;;;;8.50;3.25;;;21.60;54.40;;;;;;5093725;28;20047;-66
2022/02/21 00:15:13;;;;;;;7.93;3.13;;;21.60;54.40;;;;;;5093956;28;20492;-66
2022/02/21 00:17:39;;;;;;;10.50;3.58;;;21.60;54.40;;;;;;5076021;28;20070;-66
2022/02/21 00:20:05;;;;;;;8.20;3.13;;;21.60;54.40;;;;;;5093954;28;20028;-66
2022/02/21 00:22:30;;;;;;;8.25;3.47;;;21.60;54.40;;;;;;5093994;28;20020;-66
2022/02/21 00:24:56;;;;;;;8.73;3.17;;;21.60;54.40;;;;;;5093535;28;20513;-66
2022/02/21 00:27:22;;;;;;;10.95;3.60;;;21.60;54.40;;;;;;5093881;28;20031;-66
2022/02/21 00:29:48;;;;;;;10.05;3.85;;;21.60;54.40;;;;;;5093727;28;20024;-66
2022/02/21 00:32:14;;;;;;;12.13;3.92;;;21.60;54.30;;;;;;5093303;28;20513;-66
2022/02/21 00:34:39;;;;;;;10.43;3.60;;;21.60;54.30;;;;;;5093559;28;20073;-66
2022/02/21 00:37:05;;;;;;;9.55;2.70;;;21.60;54.40;;;;;;5075340;28;20569;-66
2022/02/21 00:39:31;;;;;;;8.02;2.78;;;21.60;54.40;;;;;;5093668;28;20016;-66
2022/02/21 00:41:56;;;;;;;8.77;3.47;;;21.60;54.40;;;;;;5093487;28;20482;-66
2022/02/21 00:44:22;;;;;;;8.32;3.28;;;21.60;54.40;;;;;;5075380;28;20394;-66
2022/02/21 00:46:48;;;;;;;6.85;2.72;;;21.60;54.40;;;;;;5092880;28;20397;-66
2022/02/21 00:49:13;;;;;;;10.40;3.70;;;21.60;54.40;;;;;;5074391;28;20031;-66
2022/02/21 00:51:39;;;;;;;10.35;3.15;;;21.60;54.40;;;;;;5093114;28;20032;-66
2022/02/21 00:54:05;;;;;;;9.00;3.03;;;21.60;54.40;;;;;;5093228;28;20023;-66
2022/02/21 00:56:30;;;;;;;9.75;3.05;;;21.60;54.40;;;;;;5093309;28;20028;-66
2022/02/21 00:58:56;;;;;;;8.18;3.50;;;21.60;54.40;;;;;;5093103;28;20198;-66
2022/02/21 01:01:21;;;;;;;12.40;3.40;;;21.60;55.40;;;;;;5092854;28;20024;-66
2022/02/21 01:03:47;;;;;;;7.43;3.30;;;21.60;54.40;;;;;;5092980;28;20031;-66
2022/02/21 01:06:17;;;;;;;9.57;3.13;;;21.60;54.40;;;;;;5093029;28;20023;-66
2022/02/21 01:08:43;;;;;;;10.00;3.53;;;21.60;54.40;;;;;;5075689;28;20051;-66
2022/02/21 01:11:09;;;;;;;7.38;3.00;;;21.60;54.40;;;;;;5074914;28;20119;-66
2022/02/21 01:13:34;;;;;;;10.95;3.15;;;21.60;54.40;;;;;;5092742;28;20115;-66
2022/02/21 01:16:00;;;;;;;8.65;3.13;;;21.60;54.30;;;;;;5092521;28;20024;-66
2022/02/21 01:18:25;;;;;;;11.50;3.65;;;21.60;54.30;;;;;;5092855;28;20052;-66
2022/02/21 01:20:51;;;;;;;11.20;3.83;;;21.60;54.40;;;;;;5092760;28;20034;-66
2022/02/21 01:23:17;;;;;;;11.43;3.72;;;21.60;54.30;;;;;;5092934;28;20032;-66
2022/02/21 01:25:42;;;;;;;8.98;3.10;;;21.60;54.30;;;;;;5079175;28;20036;-66
2022/02/21 01:28:08;;;;;;;12.25;3.55;;;21.60;54.30;;;;;;5072504;28;20021;-66
2022/02/21 01:30:33;;;;;;;8.85;3.15;;;21.50;54.30;;;;;;5072182;28;20064;-66
2022/02/21 01:32:59;;;;;;;12.55;3.30;;;21.60;54.30;;;;;;5055736;28;20041;-66
2022/02/21 01:35:25;;;;;;;9.85;3.33;;;21.60;54.40;;;;;;5052402;28;20051;-66
2022/02/21 01:37:51;;;;;;;9.20;3.08;;;21.60;54.30;;;;;;5051223;28;20496;-66
2022/02/21 01:40:16;;;;;;;8.15;2.80;;;21.60;54.30;;;;;;5051144;28;20013;-66
2022/02/21 01:42:42;;;;;;;8.25;3.03;;;21.60;54.30;;;;;;5052193;28;20506;-66
2022/02/21 01:45:08;;;;;;;8.63;3.08;;;21.60;54.30;;;;;;5050709;28;20498;-66
2022/02/21 01:47:34;;;;;;;8.38;2.88;;;21.60;54.30;;;;;;5051192;28;20013;-66
2022/02/21 01:49:59;;;;;;;6.80;2.78;;;21.60;54.30;;;;;;5051069;28;20514;-66
2022/02/21 01:52:25;;;;;;;6.65;2.58;;;21.60;54.30;;;;;;5052159;28;20067;-66
2022/02/21 01:54:50;;;;;;;9.80;3.03;;;21.60;54.20;;;;;;5052128;28;20071;-66
2022/02/21 01:57:16;;;;;;;8.23;3.25;;;21.60;54.20;;;;;;5052395;28;20025;-66
2022/02/21 01:59:42;;;;;;;8.70;3.20;;;21.50;54.20;;;;;;5050540;28;20021;-66
2022/02/21 02:02:08;;;;;;;7.18;2.85;;;21.50;54.20;;;;;;5054153;28;20391;-66
2022/02/21 02:04:33;;;;;;;8.40;3.50;;;21.50;54.10;;;;;;5056291;28;20021;-66
2022/02/21 02:07:00;;;;;;;12.80;3.40;;;21.50;54.10;;;;;;5056086;28;20438;-66
2022/02/21 02:09:26;;;;;;;10.95;3.17;;;21.50;54.20;;;;;;5055114;28;20021;-66
2022/02/21 02:11:52;;;;;;;9.27;3.35;;;21.50;54.20;;;;;;5055909;28;20048;-66
2022/02/21 02:14:44;;;;;;;11.90;3.60;;;21.50;54.20;;;;;;5054354;28;20506;-66
2022/02/21 02:17:11;;;;;;;12.32;3.75;;;21.60;54.10;;;;;;5053839;28;20026;-66
2022/02/21 02:19:37;;;;;;;8.00;2.92;;;21.50;54.20;;;;;;5056134;28;20463;-66
2022/02/21 02:22:10;;;;;;;10.52;3.72;;;21.50;54.20;;;;;;5054848;28;20111;-66
2022/02/21 02:24:36;;;;;;;8.63;2.97;;;21.50;54.10;;;;;;5055746;28;20070;-66
2022/02/21 02:27:01;;;;;;;8.52;2.95;;;21.50;54.20;;;;;;5054575;28;20025;-66
2022/02/21 02:29:27;;;;;;;9.93;3.60;;;21.50;54.10;;;;;;5055636;28;20056;-66
2022/02/21 02:31:55;;;;;;;8.90;3.42;;;21.50;54.10;;;;;;5062782;28;20048;-66
2022/02/21 02:34:20;;;;;;;9.55;3.80;;;21.50;54.10;;;;;;5075650;28;20020;-66
2022/02/21 02:36:48;;;;;;;10.40;3.70;;;21.50;54.10;;;;;;5057553;28;20031;-66
2022/02/21 02:39:14;;;;;;;9.65;3.20;;;21.50;54.10;;;;;;5075594;28;20490;-66
2022/02/21 02:41:44;;;;;;;9.05;3.55;;;21.50;54.10;;;;;;5075149;28;20029;-66
2022/02/21 02:44:10;;;;;;;7.20;2.70;;;21.50;54.00;;;;;;5074503;28;20021;-66
2022/02/21 02:46:35;;;;;;;10.45;3.53;;;21.50;54.10;;;;;;5074503;28;20112;-66
2022/02/21 02:49:01;;;;;;;10.55;3.80;;;21.50;54.10;;;;;;5075285;28;20052;-66
2022/02/21 02:51:27;;;;;;;11.23;2.83;;;21.50;54.00;;;;;;5074239;28;20521;-66
2022/02/21 02:53:53;;;;;;;7.93;2.80;;;21.50;54.00;;;;;;5075033;28;20445;-66
2022/02/21 02:56:19;;;;;;;9.63;3.25;;;21.50;54.00;;;;;;5075213;28;20486;-66
2022/02/21 02:58:44;;;;;;;8.65;2.90;;;21.40;54.10;;;;;;5075164;28;20098;-66
2022/02/21 03:01:10;;;;;;;12.07;3.63;;;21.40;54.00;;;;;;5075209;28;20059;-66
2022/02/21 03:03:35;;;;;;;12.30;3.55;;;21.40;54.00;;;;;;5075072;28;20449;-66
2022/02/21 03:06:01;;;;;;;8.93;3.55;;;21.40;54.00;;;;;;5075045;28;20035;-66
2022/02/21 03:08:27;;;;;;;9.82;3.10;;;21.40;54.00;;;;;;5073945;28;20099;-66
2022/02/21 03:10:52;;;;;;;12.40;3.35;;;21.40;54.00;;;;;;5074701;28;20099;-66
2022/02/21 03:13:18;;;;;;;7.75;3.03;;;21.40;54.00;;;;;;5073676;28;20016;-66
2022/02/21 03:15:43;;;;;;;10.38;4.07;;;21.50;54.00;;;;;;5074705;28;20046;-66
2022/02/21 03:18:09;;;;;;;8.65;3.08;;;21.40;53.90;;;;;;5073657;28;20025;-66
2022/02/21 03:20:35;;;;;;;10.55;4.10;;;21.40;53.90;;;;;;5074810;28;20086;-66
2022/02/21 03:23:01;;;;;;;12.05;3.72;;;21.40;53.80;;;;;;5074896;28;20078;-66
2022/02/21 03:25:27;;;;;;;10.68;3.40;;;21.40;53.90;;;;;;5062181;28;20068;-66
2022/02/21 03:27:52;;;;;;;11.75;3.50;;;21.40;53.80;;;;;;5054598;28;20037;-66
2022/02/21 03:30:18;;;;;;;10.73;3.28;;;21.40;53.80;;;;;;5054587;28;20036;-66
2022/02/21 03:32:43;;;;;;;11.45;3.20;;;21.40;53.80;;;;;;5068698;28;20048;-66
2022/02/21 03:35:09;;;;;;;11.68;3.65;;;21.40;53.80;;;;;;5074675;28;20024;-66
2022/02/21 03:37:38;;;;;;;11.48;3.38;;;21.40;53.70;;;;;;5086998;28;20024;-66
2022/02/21 03:40:04;;;;;;;9.88;3.78;;;21.30;53.70;;;;;;5094445;28;20541;-66
2022/02/21 03:42:31;;;;;;;11.10;3.20;;;21.40;53.80;;;;;;5094847;28;20023;-66
2022/02/21 03:44:58;;;;;;;9.32;3.00;;;21.30;53.70;;;;;;5076694;28;20016;-66
2022/02/21 03:47:23;;;;;;;8.23;3.33;;;21.30;53.60;;;;;;5094868;28;20022;-66
2022/02/21 03:49:49;;;;;;;8.30;2.83;;;21.30;53.70;;;;;;5094431;28;20028;-66
2022/02/21 03:52:15;;;;;;;10.70;3.53;;;21.30;53.70;;;;;;5094431;28;20496;-66
2022/02/21 03:54:40;;;;;;;9.27;3.03;;;21.30;53.60;;;;;;5094159;28;20028;-66
2022/02/21 03:57:06;;;;;;;8.85;4.03;;;21.30;53.60;;;;;;5094227;28;20020;-66
2022/02/21 03:59:31;;;;;;;8.77;3.25;;;21.30;53.60;;;;;;5094554;28;20046;-66
2022/02/21 04:01:57;;;;;;;10.05;3.72;;;21.30;53.60;;;;;;5094293;28;20024;-66
2022/02/21 04:04:23;;;;;;;9.68;3.63;;;21.30;53.60;;;;;;5094288;28;20074;-66
2022/02/21 04:06:48;;;;;;;10.50;3.50;;;21.30;53.60;;;;;;5093975;28;20030;-66
2022/02/21 04:09:14;;;;;;;9.13;3.50;;;21.30;53.60;;;;;;5093925;28;20095;-66
2022/02/21 04:11:39;;;;;;;10.95;3.22;;;21.30;53.60;;;;;;5094351;28;20038;-66
2022/02/21 04:14:05;;;;;;;11.38;3.63;;;21.30;53.50;;;;;;5093884;28;20424;-66
2022/02/21 04:16:34;;;;;;;12.15;3.67;;;21.30;53.50;;;;;;5094701;28;20016;-66
2022/02/21 04:19:03;;;;;;;12.68;4.05;;;21.30;53.50;;;;;;5093848;28;20486;-66
2022/02/21 04:21:29;;;;;;;10.05;3.38;;;21.30;53.50;;;;;;5076491;28;20079;-66
2022/02/21 04:23:55;;;;;;;13.90;3.45;;;21.30;53.50;;;;;;5093409;28;20032;-66
2022/02/21 04:26:21;;;;;;;9.10;3.08;;;21.30;53.50;;;;;;5075520;28;20490;-66
2022/02/21 04:28:46;;;;;;;9.98;3.15;;;21.30;53.50;;;;;;5093873;28;20028;-66
2022/02/21 04:31:14;;;;;;;13.75;4.07;;;21.30;53.50;;;;;;5093539;28;20394;-66
2022/02/21 04:33:40;;;;;;;10.30;3.40;;;21.30;53.50;;;;;;5093637;28;20027;-66
2022/02/21 04:36:05;;;;;;;8.68;3.15;;;21.30;53.50;;;;;;5075414;28;20031;-66
2022/02/21 04:38:31;;;;;;;11.43;3.20;;;21.30;53.50;;;;;;5075311;28;20146;-66
2022/02/21 04:40:57;;;;;;;12.23;3.33;;;21.30;53.50;;;;;;5075411;28;20020;-66
2022/02/21 04:43:23;;;;;;;9.85;3.47;;;21.30;53.50;;;;;;5093547;28;20027;-66
2022/02/21 04:45:54;;;;;;;10.35;3.15;;;21.30;53.50;;;;;;5093466;28;20537;-66
2022/02/21 04:48:23;;;;;;;6.85;2.67;;;21.30;53.50;;;;;;5060731;28;20101;-66
2022/02/21 04:50:49;;;;;;;12.35;3.08;;;21.30;53.50;;;;;;5075302;28;20028;-66
2022/02/21 04:53:15;;;;;;;8.32;3.15;;;21.30;53.50;;;;;;5093099;28;20107;-66
2022/02/21 04:55:41;;;;;;;11.60;3.50;;;21.30;53.50;;;;;;5093244;28;20547;-66
2022/02/21 04:58:06;;;;;;;8.93;2.95;;;21.30;54.50;;;;;;5093043;28;20047;-66
2022/02/21 05:00:32;;;;;;;8.45;3.08;;;21.30;53.40;;;;;;5074914;28;20028;-66
2022/02/21 05:02:57;;;;;;;9.05;3.22;;;21.30;53.40;;;;;;5092960;28;20035;-66
2022/02/21 05:05:23;;;;;;;11.68;3.38;;;21.30;53.40;;;;;;5075086;28;20024;-66
2022/02/21 05:07:49;;;;;;;11.10;3.28;;;21.30;53.40;;;;;;5092742;28;20059;-66
2022/02/21 05:10:14;;;;;;;9.35;3.20;;;21.30;53.40;;;;;;5092927;28;20024;-66
2022/02/21 05:12:40;;;;;;;13.82;3.53;;;21.30;53.40;;;;;;5075031;28;20097;-66
2022/02/21 05:15:07;;;;;;;14.02;3.40;;;21.30;53.40;;;;;;5074589;28;20099;-66
2022/02/21 05:17:32;;;;;;;12.65;4.05;;;21.30;53.40;;;;;;5074868;28;20077;-66
2022/02/21 05:19:58;;;;;;;10.00;2.90;;;21.30;53.40;;;;;;5092963;28;20024;-66
2022/02/21 05:22:23;;;;;;;7.43;3.00;;;21.30;53.40;;;;;;5092545;28;20031;-66
2022/02/21 05:24:50;;;;;;;11.18;3.42;;;21.30;53.40;;;;;;5086863;28;20407;-66
2022/02/21 05:27:16;;;;;;;9.02;3.28;;;21.30;53.40;;;;;;5054801;28;20111;-66
2022/02/21 05:29:42;;;;;;;10.30;3.63;;;21.30;53.40;;;;;;5072599;28;20020;-66
2022/02/21 05:32:10;;;;;;;10.27;3.20;;;21.30;53.40;;;;;;5063090;28;20575;-66
2022/02/21 05:34:38;;;;;;;8.52;3.05;;;21.30;53.40;;;;;;5052204;28;20025;-66
2022/02/21 05:37:05;;;;;;;9.13;3.30;;;21.30;53.40;;;;;;5050245;28;20021;-66
2022/02/21 05:39:31;;;;;;;13.82;3.40;;;21.30;53.40;;;;;;5052305;28;20100;-66
2022/02/21 05:41:56;;;;;;;11.05;3.38;;;21.30;53.40;;;;;;5051194;28;20448;-66
2022/02/21 05:44:22;;;;;;;9.43;3.25;;;21.30;53.40;;;;;;5050818;28;20032;-66
2022/02/21 05:46:48;;;;;;;9.25;2.92;;;21.30;53.40;;;;;;5052440;28;20451;-66
2022/02/21 05:49:13;;;;;;;11.48;3.30;;;21.30;53.40;;;;;;5052327;28;20418;-66
2022/02/21 05:51:39;;;;;;;7.18;2.55;;;21.30;53.40;;;;;;5051837;28;20043;-66
2022/02/21 05:54:05;;;;;;;10.82;3.30;;;21.30;53.30;;;;;;5052145;28;20037;-66
2022/02/21 05:56:31;;;;;;;6.78;3.10;;;21.30;53.30;;;;;;5050984;28;20033;-66
2022/02/21 05:58:56;;;;;;;12.07;3.60;;;21.30;53.40;;;;;;5052111;28;20025;-66
2022/02/21 06:01:22;;;;;;;11.52;3.20;;;21.30;53.30;;;;;;5051028;28;20484;-66
2022/02/21 06:03:47;;;;;;;14.20;3.85;;;21.30;53.30;;;;;;5052156;28;20522;-66
2022/02/21 06:06:13;;;;;;;13.05;3.53;;;21.30;53.30;;;;;;5051652;28;20491;-66
2022/02/21 06:08:39;;;;;;;11.27;3.65;;;21.30;53.30;;;;;;5034323;28;20025;-66
2022/02/21 06:11:04;;;;;;;12.60;3.90;;;21.30;53.30;;;;;;5051977;28;20025;-66
2022/02/21 06:13:30;;;;;;;16.67;3.67;;;21.30;53.30;;;;;;5051872;28;20068;-66
2022/02/21 06:15:55;;;;;;;10.13;3.35;;;21.30;53.30;;;;;;5051888;28;20082;-66
2022/02/21 06:18:21;;;;;;;10.93;4.05;;;21.30;53.30;;;;;;5051976;28;20025;-66
2022/02/21 06:20:47;;;;;;;13.23;3.97;;;21.30;53.30;;;;;;5050446;28;20017;-66
2022/02/21 06:23:12;;;;;;;13.70;3.83;;;21.30;53.30;;;;;;5051834;28;20036;-66
2022/02/21 06:25:39;;;;;;;14.23;4.07;;;21.30;53.30;;;;;;5050617;28;20060;-66
2022/02/21 06:28:05;;;;;;;9.13;3.55;;;21.30;53.30;;;;;;5050626;28;20108;-66
2022/02/21 06:30:31;;;;;;;13.55;3.75;;;21.30;53.30;;;;;;5051745;28;20025;-66
2022/02/21 06:32:56;;;;;;;9.70;3.47;;;21.30;53.20;;;;;;5050297;28;20524;-66
2022/02/21 06:35:22;;;;;;;8.95;3.33;;;21.20;53.20;;;;;;5051664;28;20163;-66
2022/02/21 06:37:49;;;;;;;9.52;3.42;;;21.20;53.10;;;;;;5050921;28;20028;-66
2022/02/21 06:40:15;;;;;;;12.07;3.85;;;21.20;53.10;;;;;;5040800;28;20026;-66
2022/02/21 06:42:41;;;;;;;9.65;3.28;;;21.20;53.10;;;;;;5037299;28;20017;-66
2022/02/21 06:45:07;;;;;;;10.73;3.40;;;21.20;53.20;;;;;;5039024;28;20034;-66
2022/02/21 06:47:32;;;;;;;14.85;4.22;;;21.30;53.30;;;;;;5032369;28;20574;-66
2022/02/21 06:49:58;;;;;;;11.98;3.75;;;21.20;53.20;;;;;;5040877;28;20092;-66
2022/02/21 06:52:24;;;;;;;11.32;3.83;;;21.20;53.20;;;;;;5042029;28;20014;-66
2022/02/21 06:54:52;;;;;;;12.50;4.00;;;21.30;53.20;;;;;;5041839;28;20029;-66
2022/02/21 06:57:22;;;;;;;13.02;3.80;;;21.20;53.20;;;;;;5041488;28;20021;-66
2022/02/21 06:59:47;;;;;;;10.65;4.03;;;21.20;53.10;;;;;;5042684;28;20621;-66
2022/02/21 07:02:13;;;;;;;12.52;3.70;;;21.20;53.20;;;;;;5042348;28;20096;-66
2022/02/21 07:04:38;;;;;;;12.98;3.60;;;21.20;53.20;;;;;;5040648;28;20031;-66
2022/02/21 07:07:04;;;;;;;11.57;3.97;;;21.30;53.20;;;;;;5024817;28;20052;-66
2022/02/21 07:09:30;;;;;;;15.57;4.38;;;21.20;53.10;;;;;;5035517;28;20041;-66
2022/02/21 07:11:55;;;;;;;13.18;3.58;;;21.20;53.10;;;;;;5033931;28;20034;-66
2022/02/21 07:14:24;;;;;;;11.57;3.85;;;21.20;53.10;;;;;;5034704;28;20111;-66
2022/02/21 07:16:50;;;;;;;11.20;3.63;;;21.30;53.20;;;;;;5034918;28;20021;-66
2022/02/21 07:19:15;;;;;;;10.82;3.75;;;21.20;53.10;;;;;;5034560;28;20426;-66
2022/02/21 07:21:42;;;;;;;11.07;3.80;;;21.30;53.20;;;;;;5035022;28;20474;-66
2022/02/21 07:24:10;;;;;;;11.45;3.92;;;21.30;53.20;;;;;;5034743;28;20029;-66
2022/02/21 07:26:36;;;;;;;11.25;3.70;;;21.20;53.10;;;;;;5053574;28;20025;-66
2022/02/21 07:29:02;;;;;;;13.88;4.07;;;21.30;53.20;;;;;;5053512;28;20441;-66
2022/02/21 07:31:28;;;;;;;10.00;3.35;;;21.30;53.20;;;;;;5062043;28;20039;-66
2022/02/21 07:33:53;;;;;;;12.10;4.00;;;21.30;53.20;;;;;;5094355;28;20466;-66
2022/02/21 07:36:19;;;;;;;12.05;4.13;;;21.20;52.80;;;;;;5094516;28;20020;-66
2022/02/21 07:38:44;;;;;;;8.88;3.53;;;21.20;52.60;;;;;;5087010;28;20020;-68
2022/02/21 07:41:10;;;;;;;16.27;4.47;;;21.20;52.80;;;;;;5070412;28;20024;-69
2022/02/21 07:43:36;;;;;;;14.95;4.30;;;21.20;52.90;;;;;;5060532;28;20027;-69
2022/02/21 07:46:01;;;;;;;14.73;4.18;;;21.10;52.90;;;;;;5075445;28;20498;-69
2022/02/21 07:48:27;;;;;;;12.55;4.20;;;21.10;52.80;;;;;;5076360;28;20118;-70
2022/02/21 07:50:54;;;;;;;12.68;4.07;;;21.10;52.90;;;;;;5094532;28;20042;-70
2022/02/21 07:53:21;;;;;;;12.77;3.97;;;21.20;52.90;;;;;;5075514;28;20024;-71
2022/02/21 07:55:47;;;;;;;13.20;4.43;;;21.20;53.00;;;;;;5064918;28;20071;-69
2022/02/21 07:58:13;;;;;;;13.27;4.35;;;21.10;52.90;;;;;;5055575;28;20021;-71
2022/02/21 08:00:39;;;;;;;16.40;4.70;;;21.20;53.00;;;;;;5073448;28;20031;-70
2022/02/21 08:03:04;;;;;;;15.07;4.32;;;21.20;53.00;;;;;;5065005;28;20032;-70
2022/02/21 08:05:30;;;;;;;13.43;4.05;;;21.20;52.90;;;;;;5075391;28;20062;-69
2022/02/21 08:07:56;;;;;;;12.40;3.97;;;21.20;52.90;;;;;;5093483;28;20452;-71
2022/02/21 08:10:21;;;;;;;12.23;3.95;;;21.20;52.90;;;;;;5049131;28;20021;-70
2022/02/21 08:12:47;;;;;;;11.70;4.10;;;21.20;52.90;;;;;;5058383;28;20064;-69
2022/02/21 08:15:13;;;;;;;13.68;4.32;;;21.10;52.90;;;;;;5073569;28;20020;-67
2022/02/21 08:17:42;;;;;;;14.50;4.82;;;21.20;53.00;;;;;;5093413;28;20016;-70
2022/02/21 08:20:09;;;;;;;12.55;4.43;;;21.20;52.80;;;;;;5059004;28;20035;-69
2022/02/21 08:22:35;;;;;;;11.90;4.30;;;21.10;52.70;;;;;;5085855;28;20087;-70
2022/02/21 08:25:01;;;;;;;14.32;4.32;;;21.10;52.80;;;;;;5081068;28;20020;-71
2022/02/21 08:27:27;;;;;;;15.15;4.70;;;21.10;52.80;;;;;;5057487;28;20036;-71
2022/02/21 08:29:53;;;;;;;13.75;4.60;;;21.10;52.90;;;;;;5093638;28;20043;-71
2022/02/21 08:32:19;;;;;;;13.77;4.55;;;21.10;52.80;;;;;;5091451;28;20051;-71
2022/02/21 08:34:45;;;;;;;15.00;4.82;;;21.10;52.80;;;;;;5064373;28;20063;-71
2022/02/21 08:37:12;;;;;;;13.02;3.92;;;21.10;52.80;;;;;;5087016;28;20078;-70
2022/02/21 08:39:37;;;;;;;13.45;4.90;;;21.10;52.80;;;;;;5093066;28;20028;-70
2022/02/21 08:42:03;;;;;;;13.77;4.65;;;21.10;52.80;;;;;;5081381;28;20027;-69
2022/02/21 08:44:31;;;;;;;13.68;4.05;;;21.10;52.90;;;;;;5092186;28;20016;-69
2022/02/21 08:46:59;;;;;;;16.83;5.78;;;21.10;52.80;;;;;;5082713;28;20166;-69
2022/02/21 08:49:25;;;;;;;13.38;4.05;;;21.10;52.90;;;;;;5090875;28;20020;-69
2022/02/21 08:51:51;;;;;;;15.30;4.35;;;21.10;52.80;;;;;;5058743;28;20420;-69
2022/02/21 08:54:19;;;;;;;12.52;4.70;;;21.10;52.70;;;;;;5075494;28;20120;-69
2022/02/21 08:56:48;;;;;;;16.92;4.85;;;21.10;52.70;;;;;;5059385;28;20501;-70
2022/02/21 08:59:16;;;;;;;15.52;5.25;;;21.10;52.80;;;;;;5075047;28;20020;-70
2022/02/21 09:01:44;;;;;;;15.30;4.32;;;21.00;52.70;;;;;;5074830;28;20024;-70
2022/02/21 09:04:13;;;;;;;10.23;3.90;;;21.00;52.70;;;;;;5093414;28;20088;-71
2022/02/21 09:06:38;;;;;;;12.25;4.30;;;21.10;52.80;;;;;;5092993;28;20074;-69
2022/02/21 09:09:04;;;;;;;15.27;4.65;;;21.00;52.70;;;;;;5066581;28;20020;-69
2022/02/21 09:11:30;;;;;;;12.50;4.22;;;21.10;52.80;;;;;;5083227;28;20119;-69
2022/02/21 09:13:56;;;;;;;11.57;3.95;;;21.00;52.70;;;;;;5091603;28;20097;-69
2022/02/21 09:16:22;;;;;;;19.02;5.18;;;21.10;52.80;;;;;;5087613;28;20099;-69
2022/02/21 09:18:47;;;;;;;13.18;4.20;;;21.10;52.80;;;;;;5067089;28;20111;-69
2022/02/21 09:21:13;;;;;;;15.45;5.45;;;21.10;52.70;;;;;;5093132;28;20035;-68
2022/02/21 09:23:38;;;;;;;17.42;4.93;;;21.10;52.80;;;;;;5092524;28;20056;-69
2022/02/21 09:26:04;;;;;;;13.10;4.28;;;21.10;52.70;;;;;;5082357;28;20545;-68
2022/02/21 09:28:30;;;;;;;13.63;4.60;;;21.10;52.80;;;;;;5092605;28;20043;-68
2022/02/21 09:30:55;;;;;;;14.50;4.43;;;21.00;52.70;;;;;;5080159;28;20477;-68
2022/02/21 09:33:24;;;;;;;16.17;5.22;;;21.00;52.60;;;;;;5071210;28;20048;-69
2022/02/21 09:35:50;;;;;;;17.60;4.70;;;21.00;52.50;;;;;;5054308;28;20103;-68
2022/02/21 09:38:16;;;;;;;16.42;4.70;;;21.00;52.60;;;;;;5090973;28;20111;-68
2022/02/21 09:40:42;;;;;;;15.82;4.97;;;21.00;52.60;;;;;;5073844;28;20020;-68
2022/02/21 09:43:08;;;;;;;11.30;4.15;;;21.00;52.60;;;;;;5086470;28;20441;-68
2022/02/21 09:45:35;;;;;;;14.10;4.20;;;21.00;52.60;;;;;;5071639;28;20042;-68
2022/02/21 09:48:01;;;;;;;16.60;5.30;;;21.00;52.60;;;;;;5070718;28;20497;-68
2022/02/21 09:50:27;;;;;;;14.45;4.32;;;21.00;52.60;;;;;;5092350;28;20028;-68
2022/02/21 09:52:54;;;;;;;10.95;4.72;;;21.00;52.60;;;;;;5074565;28;20024;-68
2022/02/21 09:55:20;;;;;;;15.30;5.20;;;21.00;52.50;;;;;;5058286;28;20103;-68
2022/02/21 09:57:46;;;;;;;15.75;4.40;;;21.00;52.60;;;;;;5091742;28;20036;-68
2022/02/21 10:00:12;;;;;;;12.10;4.25;;;21.00;52.50;;;;;;5092637;28;20073;-68
2022/02/21 10:02:38;;;;;;;12.82;4.78;;;21.00;52.50;;;;;;5092500;28;20020;-68
2022/02/21 10:05:14;;;;;;;12.23;4.55;;;21.00;52.50;;;;;;5057756;28;20082;-68
2022/02/21 10:07:40;;;;;;;14.38;4.80;;;21.00;52.40;;;;;;5054562;28;20025;-68
2022/02/21 10:10:07;;;;;;;13.25;4.50;;;21.00;52.50;;;;;;5092342;28;20101;-68
2022/02/21 10:12:48;;;;;;;14.00;4.00;;;21.00;52.50;;;;;;5090520;28;20012;-68
2022/02/21 10:15:14;;;;;;;14.18;4.72;;;21.00;52.40;;;;;;5059903;28;20027;-68
2022/02/21 10:17:40;;;;;;;13.13;4.20;;;21.00;52.60;;;;;;5083113;28;20020;-68
2022/02/21 10:20:06;;;;;;;12.18;4.03;;;21.00;52.50;;;;;;5066064;28;20104;-70
2022/02/21 10:22:32;;;;;;;14.23;4.70;;;21.00;52.30;;;;;;5059370;28;20028;-70
2022/02/21 10:24:58;;;;;;;14.45;4.30;;;21.00;52.50;;;;;;5074534;28;20020;-70
2022/02/21 10:27:29;;;;;;;11.50;4.28;;;21.00;52.40;;;;;;5066112;28;20103;-70
2022/02/21 10:30:04;;;;;;;14.93;4.57;;;21.00;52.50;;;;;;5077111;28;20028;-69
2022/02/21 10:32:34;;;;;;;11.85;4.43;;;21.00;52.40;;;;;;5078871;28;20091;-70
2022/02/21 10:35:13;;;;;;;13.80;4.40;;;21.00;52.40;;;;;;5045287;28;20012;-70
2022/02/21 10:37:46;;;;;;;13.90;4.10;;;21.00;52.20;;;;;;5069241;28;20020;-69
2022/02/21 10:40:13;;;;;;;16.17;4.95;;;20.90;52.20;;;;;;5054401;28;20016;-69
2022/02/21 10:42:39;;;;;;;11.10;4.07;;;20.90;52.30;;;;;;5060896;28;20023;-70
2022/02/21 10:45:16;;;;;;;15.48;4.60;;;20.90;52.40;;;;;;5061000;28;20024;-71
2022/02/21 10:48:01;;;;;;;15.10;4.95;;;20.90;52.20;;;;;;5085759;28;20482;-70
2022/02/21 10:50:31;;;;;;;12.73;4.15;;;20.90;52.00;;;;;;5083434;28;20029;-71
2022/02/21 10:52:56;;;;;;;13.98;4.22;;;20.90;52.30;;;;;;5059621;28;20038;-69
2022/02/21 10:55:31;;;;;;;18.02;4.68;;;20.90;52.30;;;;;;5095098;28;20016;-67
2022/02/21 10:57:57;;;;;;;14.95;4.45;;;20.90;52.10;;;;;;5092490;28;20027;-66
2022/02/21 11:00:22;;;;;;;14.38;4.72;;;20.90;52.20;;;;;;5075553;28;20088;-67
2022/02/21 11:02:48;;;;;;;14.45;5.15;;;20.90;52.20;;;;;;5075364;28;20024;-69
2022/02/21 11:05:13;;;;;;;12.45;4.13;;;20.90;52.10;;;;;;5041122;28;20539;-70
2022/02/21 11:07:41;;;;;;;16.80;4.93;;;20.90;52.20;;;;;;5075184;28;20025;-70
2022/02/21 11:10:10;;;;;;;14.45;4.28;;;20.90;52.20;;;;;;5040972;28;20398;-71
2022/02/21 11:12:44;;;;;;;15.70;4.70;;;20.90;52.20;;;;;;5057488;28;20398;-70
2022/02/21 11:15:09;;;;;;;13.98;4.53;;;20.90;52.20;;;;;;5057737;28;20020;-70
2022/02/21 11:17:36;;;;;;;14.13;4.60;;;20.90;52.20;;;;;;5076459;28;20025;-68
2022/02/21 11:20:03;;;;;;;13.50;4.50;;;20.80;52.10;;;;;;5060550;28;20031;-69
2022/02/21 11:22:29;;;;;;;12.52;4.75;;;20.80;52.10;;;;;;5077301;28;20039;-69
2022/02/21 11:24:58;;;;;;;15.20;4.53;;;20.80;52.10;;;;;;5076713;28;20117;-68
2022/02/21 11:27:41;;;;;;;14.82;4.53;;;20.90;52.20;;;;;;5063043;28;20029;-68
2022/02/21 11:30:11;;;;;;;14.45;4.55;;;20.90;52.00;;;;;;5074741;28;20016;-68
2022/02/21 11:32:40;;;;;;;14.65;4.85;;;20.90;52.20;;;;;;5057287;28;20048;-68
2022/02/21 11:35:18;;;;;;;15.18;4.80;;;20.90;52.20;;;;;;5056614;28;20035;-68
2022/02/21 11:37:47;;;;;;;14.40;4.72;;;20.90;52.10;;;;;;5088133;28;20031;-68
2022/02/21 11:40:15;;;;;;;15.18;4.63;;;20.80;52.10;;;;;;5076674;28;20512;-68
2022/02/21 11:42:41;;;;;;;14.63;4.50;;;20.90;52.20;;;;;;5086679;28;20127;-68
2022/02/21 11:45:24;;;;;;;14.20;4.75;;;20.80;52.10;;;;;;5056916;28;20103;-68
2022/02/21 11:47:52;;;;;;;14.18;4.35;;;20.90;52.00;;;;;;5092429;28;20102;-68
2022/02/21 11:50:19;;;;;;;16.10;4.40;;;20.80;52.10;;;;;;5077071;28;20012;-68
2022/02/21 11:52:48;;;;;;;11.43;4.57;;;20.80;52.10;;;;;;5094292;28;20047;-67
2022/02/21 11:55:30;;;;;;;13.00;3.88;;;20.90;52.20;;;;;;5061193;28;20024;-67
2022/02/21 11:57:56;;;;;;;15.68;4.85;;;20.90;51.90;;;;;;5094245;28;20016;-68
2022/02/21 12:00:38;;;;;;;12.75;4.57;;;20.80;52.10;;;;;;5094511;28;20103;-69
2022/02/21 12:03:36;;;;;;;10.15;3.80;;;20.90;51.90;;;;;;5059913;28;20039;-69
2022/02/21 12:06:01;;;;;;;13.02;4.63;;;20.80;51.80;;;;;;5011186;28;20049;-69
2022/02/21 12:08:27;;;;;;;11.55;3.90;;;20.80;52.20;;;;;;5011197;28;20030;-68
2022/02/21 12:11:04;;;;;;;13.68;4.40;;;20.80;52.10;;;;;;5011349;28;20563;-68
2022/02/21 12:13:44;;;;;;;10.30;4.00;;;20.80;51.90;;;;;;5011177;28;20124;-68
2022/02/21 12:16:11;;;;;;;12.60;4.03;;;20.80;52.00;;;;;;5010656;28;20037;-68
2022/02/21 12:18:44;;;;;;;15.15;4.60;;;20.70;51.80;;;;;;4991924;28;20045;-68
2022/02/21 12:21:24;;;;;;;13.00;4.03;;;20.70;51.80;;;;;;5002776;28;20030;-68
2022/02/21 12:23:53;;;;;;;14.15;4.47;;;20.70;51.70;;;;;;4991461;28;20069;-68
2022/02/21 12:26:22;;;;;;;14.20;4.53;;;20.70;51.80;;;;;;5011406;28;20033;-68
2022/02/21 12:29:09;;;;;;;12.93;4.50;;;20.60;51.80;;;;;;5011332;28;20544;-68
2022/02/21 12:31:35;;;;;;;15.95;5.00;;;20.60;51.40;;;;;;5011115;28;20192;-68
2022/02/21 12:34:01;;;;;;;11.43;4.43;;;20.50;51.70;;;;;;4992699;28;20027;-68
2022/02/21 12:36:34;;;;;;;12.93;3.88;;;20.50;51.70;;;;;;4994888;28;20025;-68
2022/02/21 12:39:00;;;;;;;12.73;3.85;;;20.50;51.70;;;;;;5011480;28;20022;-67